Time;durP1;ratioP1;P1;durP2;ratioP2;P2;SDS_P1;SDS_P2;PMS_P1;PMS_P2;Temp;Humidity;BMP_temperature;BMP_pressure;BME280_temperature;BME280_humidity;BME280_pressure;Samples;Min_cycle;Max_cycle;Signal;HPM_P1;HPM_P2
2021/04/14 00:02:06;;;;;;;4.50;1.88;;;2.00;73.00;;;;;;4995690;28;20035;-80
2021/04/14 00:04:32;;;;;;;7.85;2.60;;;2.00;73.50;;;;;;4994928;28;20034;-79
2021/04/14 00:07:03;;;;;;;4.40;2.00;;;1.90;73.80;;;;;;4991668;28;20038;-80
2021/04/14 00:09:29;;;;;;;4.35;2.00;;;1.80;73.80;;;;;;5005080;28;20054;-79
2021/04/14 00:11:56;;;;;;;6.10;2.33;;;2.00;74.40;;;;;;5001851;28;20577;-80
2021/04/14 00:14:22;;;;;;;4.53;2.13;;;1.90;73.90;;;;;;5007075;28;20030;-80
2021/04/14 00:16:48;;;;;;;8.57;2.50;;;1.90;73.90;;;;;;5002632;28;20035;-80
2021/04/14 00:19:14;;;;;;;6.70;2.40;;;1.90;75.70;;;;;;4998948;28;20049;-81
2021/04/14 00:21:40;;;;;;;4.40;1.98;;;1.80;75.00;;;;;;4996214;28;20095;-80
2021/04/14 00:24:06;;;;;;;7.20;2.15;;;1.90;75.40;;;;;;4997358;28;20045;-80
2021/04/14 00:26:32;;;;;;;6.05;1.83;;;1.70;76.60;;;;;;4998559;28;20038;-80
2021/04/14 00:28:57;;;;;;;8.23;2.65;;;1.70;76.60;;;;;;4991137;28;20547;-79
2021/04/14 00:31:35;;;;;;;4.00;1.98;;;1.70;76.70;;;;;;4997692;28;20072;-80
2021/04/14 00:34:10;;;;;;;8.77;2.42;;;1.70;77.50;;;;;;4995172;28;20038;-79
2021/04/14 00:36:36;;;;;;;3.83;2.15;;;1.70;77.60;;;;;;4989736;28;20750;-79
2021/04/14 00:39:06;;;;;;;4.28;2.30;;;1.70;77.40;;;;;;5005746;28;20030;-80
2021/04/14 00:41:32;;;;;;;7.93;2.40;;;1.60;77.70;;;;;;4998399;28;20034;-80
2021/04/14 00:43:58;;;;;;;4.50;1.95;;;1.60;77.50;;;;;;4996636;28;20536;-80
2021/04/14 00:46:24;;;;;;;10.80;2.35;;;1.60;78.50;;;;;;4990939;28;20074;-80
2021/04/14 00:48:50;;;;;;;6.78;1.98;;;1.50;78.10;;;;;;4991668;28;20058;-81
2021/04/14 00:51:18;;;;;;;5.75;2.13;;;1.50;78.80;;;;;;4992096;28;20078;-80
2021/04/14 00:53:44;;;;;;;3.08;1.90;;;1.50;78.80;;;;;;4992418;28;20061;-80
2021/04/14 00:56:10;;;;;;;6.25;2.08;;;1.50;79.90;;;;;;4991560;28;20042;-79
2021/04/14 00:58:35;;;;;;;3.70;1.88;;;1.40;81.00;;;;;;4989371;28;20062;-80
2021/04/14 01:01:01;;;;;;;7.97;2.35;;;1.30;80.30;;;;;;4991036;28;20046;-80
2021/04/14 01:03:35;;;;;;;7.18;2.33;;;1.50;80.60;;;;;;5005379;28;20041;-81
2021/04/14 01:06:23;;;;;;;3.03;1.75;;;1.30;80.00;;;;;;4987360;28;20039;-80
2021/04/14 01:08:49;;;;;;;12.00;2.05;;;1.30;80.20;;;;;;4993051;28;20031;-81
2021/04/14 01:11:16;;;;;;;7.75;2.30;;;1.30;80.40;;;;;;4992732;28;20049;-82
2021/04/14 01:13:43;;;;;;;7.35;2.15;;;1.30;81.30;;;;;;4996751;28;20587;-79
2021/04/14 01:16:09;;;;;;;6.85;2.00;;;1.30;81.10;;;;;;4990286;28;20042;-78
2021/04/14 01:18:37;;;;;;;5.28;2.10;;;1.30;80.30;;;;;;4993629;28;20038;-78
2021/04/14 01:21:18;;;;;;;5.03;2.13;;;1.30;80.60;;;;;;4993781;28;20045;-79
2021/04/14 01:23:44;;;;;;;6.78;2.15;;;1.30;81.30;;;;;;4988398;28;20043;-79
2021/04/14 01:26:10;;;;;;;8.40;2.08;;;1.20;80.50;;;;;;4993924;28;20039;-79
2021/04/14 01:28:38;;;;;;;4.15;1.92;;;1.20;80.10;;;;;;4990986;28;20041;-80
2021/04/14 01:31:10;;;;;;;9.45;2.72;;;1.20;80.40;;;;;;4992788;28;20100;-79
2021/04/14 01:33:36;;;;;;;6.03;1.98;;;1.20;82.00;;;;;;4991709;28;20707;-81
2021/04/14 01:36:04;;;;;;;5.60;1.80;;;1.20;81.50;;;;;;4995124;28;20094;-82
2021/04/14 01:38:29;;;;;;;8.25;1.95;;;1.20;81.50;;;;;;4988690;28;20060;-80
2021/04/14 01:40:56;;;;;;;4.47;2.20;;;1.10;81.50;;;;;;5001077;28;20058;-81
2021/04/14 01:43:21;;;;;;;4.50;1.33;;;1.10;81.60;;;;;;5006994;28;20030;-79
2021/04/14 01:45:47;;;;;;;4.75;1.95;;;1.10;82.60;;;;;;4998422;28;20056;-79
2021/04/14 01:48:14;;;;;;;3.85;1.88;;;1.20;81.90;;;;;;4995521;28;20074;-79
2021/04/14 01:50:41;;;;;;;6.18;2.67;;;1.10;82.10;;;;;;4999125;28;20084;-80
2021/04/14 01:53:09;;;;;;;5.72;1.85;;;1.10;82.40;;;;;;4995958;28;20066;-79
2021/04/14 01:55:35;;;;;;;3.90;1.58;;;1.10;82.80;;;;;;5003086;28;20042;-79
2021/04/14 01:58:01;;;;;;;5.20;2.30;;;1.00;83.20;;;;;;4997494;28;20136;-79
2021/04/14 02:00:37;;;;;;;5.00;2.28;;;1.00;84.10;;;;;;4995982;28;20046;-80
2021/04/14 02:03:03;;;;;;;5.25;1.90;;;1.00;83.40;;;;;;4986667;28;20054;-82
2021/04/14 02:05:31;;;;;;;5.40;2.17;;;1.00;83.30;;;;;;4992243;28;20042;-77
2021/04/14 02:07:57;;;;;;;5.85;1.98;;;1.00;83.30;;;;;;4994435;28;20058;-79
2021/04/14 02:10:25;;;;;;;7.97;2.50;;;0.90;84.60;;;;;;4990842;28;20054;-79
2021/04/14 02:12:51;;;;;;;5.28;2.03;;;1.00;85.80;;;;;;4987891;28;20138;-79
2021/04/14 02:15:21;;;;;;;8.38;2.50;;;0.90;85.70;;;;;;4996197;28;20066;-80
2021/04/14 02:17:47;;;;;;;6.90;2.70;;;0.90;86.00;;;;;;4984454;28;20039;-78
2021/04/14 02:20:15;;;;;;;10.02;2.40;;;0.90;86.90;;;;;;4990701;28;20122;-80
2021/04/14 02:22:41;;;;;;;7.63;2.53;;;0.90;87.20;;;;;;4993650;28;20054;-79
2021/04/14 02:25:10;;;;;;;14.98;2.90;;;0.80;87.90;;;;;;4989506;28;20426;-80
2021/04/14 02:27:36;;;;;;;4.30;2.00;;;0.90;88.20;;;;;;4989725;28;20084;-80
2021/04/14 02:30:05;;;;;;;7.90;2.25;;;0.80;88.50;;;;;;4993642;28;20489;-80
2021/04/14 02:32:30;;;;;;;10.93;1.92;;;0.80;88.40;;;;;;4999929;28;20088;-79
2021/04/14 02:34:56;;;;;;;10.10;2.50;;;0.80;89.20;;;;;;4995038;28;20038;-80
2021/04/14 02:37:21;;;;;;;4.68;2.13;;;0.80;89.30;;;;;;5000033;28;20061;-79
2021/04/14 02:39:47;;;;;;;8.43;2.80;;;0.80;89.30;;;;;;4991704;28;20041;-80
2021/04/14 02:42:13;;;;;;;4.25;2.30;;;0.70;90.40;;;;;;4994546;28;20039;-80
2021/04/14 02:44:38;;;;;;;10.75;2.70;;;0.70;91.10;;;;;;5002220;28;20118;-79
2021/04/14 02:47:04;;;;;;;9.07;2.45;;;0.70;90.90;;;;;;5005175;28;20042;-78
2021/04/14 02:49:29;;;;;;;6.63;3.05;;;0.70;90.80;;;;;;4996846;28;20048;-78
2021/04/14 02:51:55;;;;;;;10.15;3.15;;;0.70;91.30;;;;;;5001502;28;20053;-81
2021/04/14 02:54:21;;;;;;;8.70;3.03;;;0.70;91.60;;;;;;5004647;28;20046;-78
2021/04/14 02:56:47;;;;;;;8.48;2.47;;;0.70;92.00;;;;;;5000088;28;20019;-80
2021/04/14 02:59:13;;;;;;;11.88;2.47;;;0.70;92.00;;;;;;5000416;28;20069;-80
2021/04/14 03:01:38;;;;;;;12.55;2.80;;;0.70;91.90;;;;;;5004897;28;20038;-81
2021/04/14 03:04:05;;;;;;;9.10;3.00;;;0.60;92.40;;;;;;5005258;28;20015;-80
2021/04/14 03:06:31;;;;;;;4.38;2.33;;;0.60;92.20;;;;;;5002953;28;20134;-80
2021/04/14 03:08:57;;;;;;;9.70;3.20;;;0.60;91.90;;;;;;4991760;28;20085;-81
2021/04/14 03:11:23;;;;;;;7.68;2.53;;;0.60;92.30;;;;;;5013539;28;20037;-81
2021/04/14 03:13:48;;;;;;;9.40;3.42;;;0.60;92.60;;;;;;5017825;28;20595;-80
2021/04/14 03:16:14;;;;;;;6.63;3.03;;;0.60;92.60;;;;;;4997859;28;20057;-80
2021/04/14 03:18:39;;;;;;;9.20;3.03;;;0.70;92.70;;;;;;5001406;28;20053;-80
2021/04/14 03:21:05;;;;;;;6.00;2.97;;;0.50;92.90;;;;;;4993628;28;20080;-81
2021/04/14 03:23:31;;;;;;;10.70;3.25;;;0.50;93.30;;;;;;4996157;28;20069;-80
2021/04/14 03:25:57;;;;;;;12.25;3.53;;;0.50;93.20;;;;;;4998451;28;20038;-81
2021/04/14 03:28:22;;;;;;;9.50;2.90;;;0.50;93.80;;;;;;4999323;28;20034;-80
2021/04/14 03:30:48;;;;;;;13.02;3.17;;;0.50;93.90;;;;;;4995562;28;20306;-80
2021/04/14 03:33:14;;;;;;;10.38;3.75;;;0.50;94.10;;;;;;4993531;28;20114;-80
2021/04/14 03:35:40;;;;;;;9.57;2.92;;;0.40;94.20;;;;;;4994384;28;20046;-81
2021/04/14 03:38:05;;;;;;;10.15;3.65;;;0.50;94.80;;;;;;4992954;28;20053;-80
2021/04/14 03:40:31;;;;;;;8.35;3.55;;;0.40;94.80;;;;;;5003061;28;20155;-79
2021/04/14 03:42:57;;;;;;;17.20;4.07;;;0.40;95.60;;;;;;5002695;28;20038;-80
2021/04/14 03:45:38;;;;;;;11.05;3.83;;;0.40;95.60;;;;;;5001702;28;20041;-80
2021/04/14 03:48:05;;;;;;;7.72;3.47;;;0.40;95.70;;;;;;4998586;28;20029;-80
2021/04/14 03:50:31;;;;;;;12.05;3.67;;;0.40;95.70;;;;;;5002226;28;20026;-81
2021/04/14 03:53:08;;;;;;;11.02;4.22;;;0.30;95.80;;;;;;5010770;28;20058;-80
2021/04/14 03:55:34;;;;;;;9.32;3.67;;;0.30;95.70;;;;;;5014034;28;20054;-79
2021/04/14 03:57:59;;;;;;;16.88;4.05;;;0.30;96.10;;;;;;5007347;28;20022;-79
2021/04/14 04:00:25;;;;;;;6.45;4.05;;;0.20;96.00;;;;;;5018190;23;20050;-72
2021/04/14 04:02:51;;;;;;;10.50;3.70;;;0.30;96.10;;;;;;5018262;23;20053;-72
2021/04/14 04:05:17;;;;;;;13.93;3.92;;;0.30;96.60;;;;;;5002902;28;20034;-73
2021/04/14 04:07:42;;;;;;;6.93;3.85;;;0.20;96.70;;;;;;5001193;28;20095;-73
2021/04/14 04:10:09;;;;;;;8.93;4.35;;;0.20;97.10;;;;;;4999137;28;20042;-72
2021/04/14 04:12:35;;;;;;;10.13;4.25;;;0.20;97.30;;;;;;5010983;28;20096;-72
2021/04/14 04:15:01;;;;;;;12.93;4.78;;;0.20;97.50;;;;;;5006090;28;20091;-72
2021/04/14 04:17:26;;;;;;;12.07;4.97;;;0.20;98.20;;;;;;4997003;28;20127;-73
2021/04/14 04:19:52;;;;;;;16.67;4.20;;;0.20;98.30;;;;;;5004047;28;20759;-73
2021/04/14 04:22:19;;;;;;;12.95;4.40;;;0.20;98.30;;;;;;5005329;28;20502;-73
2021/04/14 04:24:49;;;;;;;11.68;4.90;;;0.20;98.60;;;;;;5001875;28;20599;-73
2021/04/14 04:27:17;;;;;;;8.23;4.45;;;0.10;98.90;;;;;;5006882;28;20053;-72
2021/04/14 04:29:43;;;;;;;11.60;4.28;;;0.10;99.20;;;;;;5009505;28;20824;-73
2021/04/14 04:32:08;;;;;;;10.52;4.15;;;0.10;99.80;;;;;;5005721;28;20045;-72
2021/04/14 04:34:34;;;;;;;8.20;3.78;;;0.10;99.90;;;;;;4990827;28;20030;-72
2021/04/14 04:37:00;;;;;;;13.90;4.40;;;0.10;99.90;;;;;;5015828;28;20032;-72
2021/04/14 04:39:25;;;;;;;8.13;3.85;;;0.10;99.90;;;;;;5006153;28;20038;-72
2021/04/14 04:41:51;;;;;;;10.60;3.50;;;0.10;99.90;;;;;;5008433;28;20044;-72
2021/04/14 04:44:16;;;;;;;6.35;3.42;;;0.20;99.90;;;;;;5007457;28;20040;-72
2021/04/14 04:46:42;;;;;;;11.48;3.80;;;0.10;99.90;;;;;;5010907;28;20100;-72
2021/04/14 04:49:07;;;;;;;9.02;4.22;;;0.20;99.90;;;;;;4992832;28;20037;-72
2021/04/14 04:51:33;;;;;;;13.02;4.25;;;0.20;99.90;;;;;;5004407;28;20026;-72
2021/04/14 04:53:59;;;;;;;12.27;4.15;;;0.20;99.90;;;;;;5003593;28;20046;-72
2021/04/14 04:56:24;;;;;;;11.48;4.45;;;0.20;99.90;;;;;;5010015;28;20498;-72
2021/04/14 04:58:50;;;;;;;13.65;4.57;;;0.20;99.90;;;;;;5002020;28;20640;-71
2021/04/14 05:01:16;;;;;;;9.32;3.22;;;0.30;99.90;;;;;;5004445;28;20101;-72
2021/04/14 05:03:42;;;;;;;16.48;6.15;;;0.20;99.90;;;;;;5003176;28;20046;-72
2021/04/14 05:06:08;;;;;;;16.48;4.90;;;0.30;99.90;;;;;;5002911;28;20394;-73
2021/04/14 05:08:33;;;;;;;15.77;5.05;;;0.30;99.90;;;;;;5005037;28;20462;-74
2021/04/14 05:10:59;;;;;;;18.00;5.22;;;0.30;99.90;;;;;;4997480;28;20531;-73
2021/04/14 05:13:25;;;;;;;9.48;4.68;;;0.40;99.90;;;;;;5005538;28;20510;-73
2021/04/14 05:15:50;;;;;;;13.35;5.22;;;0.40;99.90;;;;;;5000930;28;20038;-73
2021/04/14 05:18:17;;;;;;;16.48;5.38;;;0.40;99.90;;;;;;5013133;28;20068;-73
2021/04/14 05:20:42;;;;;;;15.57;5.53;;;0.50;99.90;;;;;;5003819;28;20046;-73
2021/04/14 05:23:09;;;;;;;13.30;5.28;;;0.50;99.90;;;;;;4995682;28;20038;-73
2021/04/14 05:25:38;;;;;;;17.23;5.38;;;0.60;99.90;;;;;;5002691;28;20045;-74
2021/04/14 05:28:07;;;;;;;15.50;5.78;;;0.60;99.90;;;;;;5005090;28;20050;-74
2021/04/14 05:30:33;;;;;;;13.98;4.80;;;0.70;99.90;;;;;;4993953;28;20108;-73
2021/04/14 05:33:00;;;;;;;13.82;4.93;;;0.70;99.90;;;;;;4994611;28;20489;-73
2021/04/14 05:35:26;;;;;;;24.02;6.65;;;0.80;99.90;;;;;;5001175;28;20038;-74
2021/04/14 05:37:51;;;;;;;19.83;7.38;;;0.90;99.90;;;;;;5004879;28;20482;-74
2021/04/14 05:40:17;;;;;;;20.10;6.63;;;1.00;99.50;;;;;;5007512;28;20046;-74
2021/04/14 05:42:46;;;;;;;18.40;6.95;;;1.10;99.00;;;;;;4990265;28;20045;-74
2021/04/14 05:45:15;;;;;;;13.82;6.03;;;1.20;98.50;;;;;;5005348;28;20041;-73
2021/04/14 05:47:41;;;;;;;18.65;5.78;;;1.30;98.20;;;;;;5002717;28;20041;-73
2021/04/14 05:50:08;;;;;;;15.85;5.65;;;1.40;97.40;;;;;;5008183;28;20088;-73
2021/04/14 05:52:34;;;;;;;12.13;5.03;;;1.60;97.20;;;;;;4994168;28;20058;-73
2021/04/14 05:54:59;;;;;;;12.43;4.63;;;1.70;95.30;;;;;;5003019;28;20072;-72
2021/04/14 05:57:25;;;;;;;20.90;8.20;;;1.90;93.60;;;;;;5005489;28;20125;-72
2021/04/14 05:59:51;;;;;;;31.95;8.07;;;2.00;93.80;;;;;;5004682;28;20041;-72
2021/04/14 06:02:16;;;;;;;21.30;7.50;;;2.20;94.00;;;;;;5004185;28;20034;-71
2021/04/14 06:04:42;;;;;;;25.77;7.60;;;2.30;93.30;;;;;;5001659;28;20275;-71
2021/04/14 06:07:07;;;;;;;18.42;7.93;;;2.40;93.20;;;;;;5004411;28;20034;-72
2021/04/14 06:09:33;;;;;;;16.25;7.75;;;2.50;92.50;;;;;;5005557;28;20060;-72
2021/04/14 06:11:59;;;;;;;27.38;7.35;;;2.60;92.40;;;;;;5012452;28;20564;-72
2021/04/14 06:14:24;;;;;;;16.75;7.30;;;2.80;91.40;;;;;;5003173;28;20033;-72
2021/04/14 06:16:50;;;;;;;22.00;6.40;;;2.90;91.30;;;;;;5004477;28;20072;-72
2021/04/14 06:19:16;;;;;;;17.50;6.95;;;3.00;90.20;;;;;;5011035;28;20075;-75
2021/04/14 06:21:42;;;;;;;14.70;6.18;;;3.10;88.70;;;;;;4985225;28;20030;-72
2021/04/14 06:24:08;;;;;;;14.18;5.95;;;3.30;88.00;;;;;;5013482;28;20113;-72
2021/04/14 06:29:02;;;;;;;13.13;5.38;;;3.60;82.00;;;;;;5000368;28;20076;-72
2021/04/14 06:31:29;;;;;;;15.18;4.88;;;3.60;80.90;;;;;;5015412;28;20065;-72
2021/04/14 06:33:55;;;;;;;19.52;5.53;;;3.70;80.40;;;;;;5005116;28;20840;-73
2021/04/14 06:36:21;;;;;;;16.52;5.32;;;3.70;79.80;;;;;;5002857;28;20046;-73
2021/04/14 06:38:49;;;;;;;13.93;4.18;;;3.90;78.10;;;;;;4998813;28;20038;-73
2021/04/14 06:44:40;;;;;;;12.00;4.68;;;4.10;75.50;;;;;;5007846;28;20597;-73
2021/04/14 06:47:40;;;;;;;7.80;3.92;;;4.30;74.50;;;;;;4995508;28;20548;-73
2021/04/14 06:50:13;;;;;;;9.35;3.90;;;4.50;74.80;;;;;;4995240;28;20045;-73
2021/04/14 06:53:05;;;;;;;15.38;5.13;;;4.60;72.00;;;;;;5007405;28;20069;-73
2021/04/14 06:55:39;;;;;;;22.55;5.68;;;4.70;71.60;;;;;;5001688;28;20033;-73
2021/04/14 06:58:10;;;;;;;13.43;4.80;;;4.80;71.40;;;;;;5006008;28;20042;-73
2021/04/14 07:00:43;;;;;;;11.02;4.50;;;5.00;70.30;;;;;;5000377;28;20048;-73
2021/04/14 07:03:13;;;;;;;19.85;5.50;;;5.00;67.80;;;;;;5008070;28;20058;-73
2021/04/14 07:05:45;;;;;;;14.27;4.32;;;5.00;68.20;;;;;;5006041;28;20398;-73
2021/04/14 07:08:20;;;;;;;12.50;5.00;;;5.00;68.20;;;;;;5012825;28;20130;-73
2021/04/14 07:10:50;;;;;;;19.70;6.47;;;5.00;67.10;;;;;;5003826;28;20108;-74
2021/04/14 07:13:16;;;;;;;12.40;4.70;;;5.20;67.70;;;;;;5007491;28;20049;-73
2021/04/14 07:15:42;;;;;;;13.43;3.67;;;5.20;65.90;;;;;;5010240;28;20095;-74
2021/04/14 07:18:23;;;;;;;9.63;3.50;;;5.00;64.80;;;;;;5012672;28;20061;-73
2021/04/14 07:21:06;;;;;;;7.97;3.42;;;4.90;65.10;;;;;;5008208;28;20751;-73
2021/04/14 07:23:42;;;;;;;33.97;4.60;;;5.10;65.30;;;;;;4995764;28;20037;-73
2021/04/14 07:26:22;;;;;;;11.52;4.28;;;5.30;64.70;;;;;;5002981;28;20573;-72
2021/04/14 07:28:55;;;;;;;10.10;3.45;;;5.50;64.60;;;;;;5006502;28;20049;-72
2021/04/14 07:31:53;;;;;;;13.38;4.68;;;5.80;63.70;;;;;;5010249;28;20119;-74
2021/04/14 07:34:31;;;;;;;17.90;3.92;;;5.70;61.50;;;;;;4996829;28;20120;-73
2021/04/14 07:37:12;;;;;;;12.93;4.00;;;6.30;59.90;;;;;;5006584;28;20517;-74
2021/04/14 07:40:03;;;;;;;11.35;4.60;;;6.40;58.90;;;;;;5006167;28;20042;-74
2021/04/14 07:43:05;;;;;;;9.82;4.32;;;6.70;58.40;;;;;;5004117;28;20129;-73
2021/04/14 07:45:37;;;;;;;12.57;3.78;;;6.10;55.60;;;;;;4999048;28;20064;-73
2021/04/14 07:48:09;;;;;;;6.90;3.08;;;6.50;56.00;;;;;;5008330;28;20113;-73
2021/04/14 07:50:39;;;;;;;8.85;3.70;;;6.60;55.70;;;;;;5009082;28;20038;-73
2021/04/14 07:53:19;;;;;;;7.95;2.80;;;7.00;55.70;;;;;;5008391;28;20049;-72
2021/04/14 07:55:45;;;;;;;10.38;3.60;;;6.90;53.00;;;;;;5002407;28;20033;-72
2021/04/14 07:58:17;;;;;;;9.93;3.60;;;7.20;52.60;;;;;;5013758;28;20029;-73
2021/04/14 08:00:46;;;;;;;10.60;3.65;;;7.40;51.20;;;;;;5011759;28;20125;-73
2021/04/14 08:03:31;;;;;;;10.82;3.70;;;7.20;51.40;;;;;;5006571;28;20054;-73
2021/04/14 08:06:17;;;;;;;12.05;3.50;;;7.40;52.50;;;;;;5007194;28;20482;-73
2021/04/14 08:08:44;;;;;;;9.57;3.20;;;6.80;51.60;;;;;;5002909;28;20616;-74
2021/04/14 08:11:31;;;;;;;13.93;4.10;;;7.10;52.90;;;;;;5001333;28;20147;-73
2021/04/14 08:14:24;;;;;;;10.82;4.28;;;7.20;50.90;;;;;;5006605;28;20042;-73
2021/04/14 08:16:53;;;;;;;10.45;3.45;;;7.60;50.70;;;;;;5006651;28;20033;-73
2021/04/14 08:19:25;;;;;;;7.18;3.28;;;8.10;49.20;;;;;;5007713;28;20128;-73
2021/04/14 08:21:58;;;;;;;10.45;4.15;;;7.60;48.90;;;;;;5000973;28;20109;-73
2021/04/14 08:24:32;;;;;;;12.07;3.58;;;8.00;48.10;;;;;;5004698;28;20513;-75
2021/04/14 08:27:13;;;;;;;9.48;3.17;;;8.40;47.30;;;;;;5003936;28;20034;-72
2021/04/14 08:29:38;;;;;;;11.52;3.40;;;8.70;46.40;;;;;;5001001;28;20598;-73
2021/04/14 08:32:12;;;;;;;9.65;3.22;;;8.50;46.10;;;;;;4994125;28;20141;-72
2021/04/14 08:34:39;;;;;;;14.27;3.67;;;8.80;44.20;;;;;;5008074;28;20038;-72
2021/04/14 08:37:07;;;;;;;11.57;3.03;;;9.10;44.50;;;;;;5003757;28;20033;-71
2021/04/14 08:39:36;;;;;;;8.80;2.97;;;9.30;42.90;;;;;;5004648;28;20034;-73
2021/04/14 08:42:23;;;;;;;8.52;2.85;;;9.60;41.30;;;;;;5007208;28;20112;-72
2021/04/14 08:44:55;;;;;;;13.25;2.47;;;9.80;40.90;;;;;;4999961;28;20030;-72
2021/04/14 08:47:28;;;;;;;6.97;2.92;;;10.20;36.20;;;;;;5011071;28;20033;-71
2021/04/14 08:50:00;;;;;;;6.15;2.75;;;10.60;37.30;;;;;;5011279;28;20029;-72
2021/04/14 08:52:27;;;;;;;6.05;2.80;;;11.40;34.20;;;;;;5002613;28;20068;-72
2021/04/14 08:54:56;;;;;;;8.60;3.20;;;11.90;30.70;;;;;;4989301;28;20030;-72
2021/04/14 08:57:22;;;;;;;10.23;2.78;;;12.60;27.90;;;;;;5007313;28;20032;-72
2021/04/14 08:59:48;;;;;;;11.60;2.38;;;12.40;25.60;;;;;;5008017;28;20030;-72
2021/04/14 09:02:17;;;;;;;10.98;3.63;;;12.70;26.40;;;;;;5006378;28;20057;-73
2021/04/14 09:04:45;;;;;;;8.32;3.30;;;12.00;27.00;;;;;;5005992;28;20041;-73
2021/04/14 09:07:16;;;;;;;8.23;2.35;;;12.10;25.30;;;;;;4999035;28;20392;-72
2021/04/14 09:09:47;;;;;;;11.75;2.83;;;12.80;25.30;;;;;;5007699;28;20051;-73
2021/04/14 09:12:13;;;;;;;6.90;2.78;;;12.90;25.20;;;;;;5003568;28;20034;-72
2021/04/14 09:14:39;;;;;;;14.90;3.13;;;12.80;25.50;;;;;;5001107;28;20042;-72
2021/04/14 09:17:19;;;;;;;5.15;2.42;;;13.30;23.80;;;;;;4994737;28;20048;-73
2021/04/14 09:19:47;;;;;;;10.70;2.20;;;13.40;24.80;;;;;;5005754;28;20537;-72
2021/04/14 09:22:12;;;;;;;11.63;2.67;;;14.30;23.20;;;;;;5002115;28;20141;-72
2021/04/14 09:24:45;;;;;;;6.70;2.15;;;14.20;21.00;;;;;;5002679;28;20818;-73
2021/04/14 09:27:22;;;;;;;7.88;2.50;;;13.40;20.90;;;;;;5004814;28;20477;-73
2021/04/14 09:30:03;;;;;;;8.68;2.28;;;13.80;20.50;;;;;;5000384;28;20034;-73
2021/04/14 09:32:47;;;;;;;7.07;2.50;;;13.90;19.20;;;;;;4998412;28;20043;-73
2021/04/14 09:35:22;;;;;;;12.52;2.50;;;14.00;19.10;;;;;;5006476;28;20107;-73
2021/04/14 09:37:51;;;;;;;8.65;2.38;;;14.80;19.10;;;;;;5004604;28;20398;-73
2021/04/14 09:40:32;;;;;;;10.20;2.53;;;15.10;18.20;;;;;;5004276;28;20030;-73
2021/04/14 09:42:58;;;;;;;9.15;2.20;;;14.80;16.90;;;;;;5008741;28;20049;-72
2021/04/14 09:45:26;;;;;;;5.55;2.28;;;14.90;17.30;;;;;;5005011;28;20100;-74
2021/04/14 09:47:53;;;;;;;7.45;2.25;;;15.50;17.80;;;;;;5006637;28;20116;-74
2021/04/14 09:50:28;;;;;;;6.32;2.50;;;15.40;16.20;;;;;;5007175;28;20042;-73
2021/04/14 09:53:08;;;;;;;8.70;2.28;;;14.80;15.60;;;;;;5003454;28;20030;-73
2021/04/14 09:55:51;;;;;;;5.55;2.25;;;15.20;15.50;;;;;;5001317;28;20030;-73
2021/04/14 09:58:24;;;;;;;5.93;1.77;;;15.60;15.90;;;;;;5006367;28;20499;-72
2021/04/14 10:00:57;;;;;;;6.10;1.98;;;15.80;12.20;;;;;;5011087;28;20445;-73
2021/04/14 10:03:33;;;;;;;6.50;2.03;;;13.40;15.50;;;;;;5003337;23;20050;-77
2021/04/14 10:06:08;;;;;;;5.47;1.77;;;12.80;16.70;;;;;;5009156;28;20041;-76
2021/04/14 10:08:36;;;;;;;8.43;1.70;;;11.80;18.20;;;;;;5021571;28;20037;-76
2021/04/14 10:11:02;;;;;;;8.98;1.67;;;11.20;17.30;;;;;;5027590;28;20037;-76
2021/04/14 10:13:29;;;;;;;6.10;1.58;;;10.20;18.50;;;;;;5028659;28;20464;-76
2021/04/14 10:15:55;;;;;;;5.47;1.75;;;9.60;21.60;;;;;;5022503;28;20053;-76
2021/04/14 10:18:24;;;;;;;7.53;1.77;;;9.60;21.20;;;;;;5027719;28;20046;-77
2021/04/14 10:20:51;;;;;;;3.45;1.65;;;9.40;21.60;;;;;;5024573;28;20045;-76
2021/04/14 10:23:20;;;;;;;5.80;1.75;;;9.60;22.00;;;;;;5029293;28;20041;-76
2021/04/14 10:25:47;;;;;;;3.50;1.52;;;9.60;21.60;;;;;;5027150;28;20049;-76
2021/04/14 10:28:15;;;;;;;4.78;2.17;;;9.90;22.60;;;;;;5025977;28;20401;-78
2021/04/14 10:30:48;;;;;;;6.55;2.08;;;10.40;21.60;;;;;;5026019;28;20048;-76
2021/04/14 10:33:25;;;;;;;4.03;2.15;;;10.50;21.50;;;;;;5021166;28;20064;-75
2021/04/14 10:35:52;;;;;;;5.93;2.22;;;12.30;21.40;;;;;;5029317;28;20037;-77
2021/04/14 10:38:32;;;;;;;5.65;2.38;;;11.90;21.40;;;;;;5023771;28;20037;-77
2021/04/14 10:40:58;;;;;;;4.85;2.60;;;11.10;21.20;;;;;;5024651;28;20072;-76
2021/04/14 10:43:27;;;;;;;7.93;2.45;;;10.50;22.30;;;;;;5029025;28;20041;-76
2021/04/14 10:46:05;;;;;;;8.20;2.42;;;10.10;22.60;;;;;;5023303;28;20120;-76
2021/04/14 10:48:38;;;;;;;8.35;2.05;;;10.00;23.20;;;;;;5026093;28;20118;-76
2021/04/14 10:51:23;;;;;;;5.25;1.60;;;9.80;27.70;;;;;;5024332;28;20044;-76
2021/04/14 10:53:51;;;;;;;6.53;2.55;;;9.40;30.10;;;;;;5023934;28;20053;-76
2021/04/14 10:56:27;;;;;;;5.57;1.92;;;9.40;31.10;;;;;;5028387;28;20124;-77
2021/04/14 10:58:55;;;;;;;9.85;2.28;;;9.30;32.00;;;;;;5030498;28;20065;-76
2021/04/14 11:01:35;;;;;;;4.47;2.40;;;9.10;33.20;;;;;;5024411;28;20454;-76
2021/04/14 11:04:11;;;;;;;8.35;2.28;;;8.80;33.60;;;;;;5026896;28;20041;-75
2021/04/14 11:06:37;;;;;;;7.00;2.60;;;8.70;35.40;;;;;;5029217;28;20507;-77
2021/04/14 11:09:04;;;;;;;4.22;1.98;;;8.60;35.00;;;;;;5022266;28;20040;-76
2021/04/14 11:11:29;;;;;;;6.95;2.45;;;8.50;37.00;;;;;;5033399;28;20035;-75
2021/04/14 11:13:56;;;;;;;5.20;2.65;;;8.20;36.90;;;;;;5025702;28;20045;-76
2021/04/14 11:16:21;;;;;;;8.80;1.83;;;8.10;36.80;;;;;;5020819;28;20041;-75
2021/04/14 11:18:47;;;;;;;7.75;2.35;;;7.70;37.20;;;;;;5025091;28;20042;-75
2021/04/14 11:21:30;;;;;;;6.35;2.28;;;7.80;37.50;;;;;;5019160;28;20048;-75
2021/04/14 11:24:09;;;;;;;9.27;2.20;;;7.70;37.10;;;;;;5026544;28;20494;-76
2021/04/14 11:26:54;;;;;;;4.47;2.25;;;7.70;35.10;;;;;;5014910;28;20038;-76
2021/04/14 11:29:24;;;;;;;6.38;1.80;;;7.80;35.10;;;;;;5027104;28;20037;-76
2021/04/14 11:31:51;;;;;;;4.05;2.00;;;8.00;29.50;;;;;;5019968;28;20511;-76
2021/04/14 11:34:19;;;;;;;3.33;1.67;;;8.20;28.80;;;;;;5026837;28;20050;-79
2021/04/14 11:37:01;;;;;;;3.65;2.33;;;8.60;27.90;;;;;;5021683;28;20030;-75
2021/04/14 11:39:29;;;;;;;5.28;2.22;;;8.80;27.00;;;;;;5022673;28;20435;-76
2021/04/14 11:42:15;;;;;;;5.93;2.05;;;9.00;26.40;;;;;;5023081;28;20087;-76
2021/04/14 11:44:41;;;;;;;8.20;2.15;;;8.90;27.60;;;;;;5022609;28;20056;-74
2021/04/14 11:47:19;;;;;;;3.95;2.28;;;9.10;27.20;;;;;;5024654;28;20576;-77
2021/04/14 11:49:44;;;;;;;12.48;2.22;;;9.10;28.20;;;;;;5014716;28;20112;-76
2021/04/14 11:52:21;;;;;;;11.07;2.42;;;9.00;29.10;;;;;;5021869;28;20516;-77
2021/04/14 11:54:48;;;;;;;9.40;2.58;;;9.10;28.50;;;;;;5020520;28;20594;-77
2021/04/14 11:57:31;;;;;;;6.97;2.53;;;8.90;28.00;;;;;;5022467;28;20113;-77
2021/04/14 12:00:15;;;;;;;5.13;1.77;;;9.10;29.80;;;;;;5017175;28;20148;-76
2021/04/14 12:02:42;;;;;;;9.77;2.50;;;9.20;28.80;;;;;;5026695;28;20384;-76
2021/04/14 12:05:09;;;;;;;6.47;2.30;;;9.60;28.60;;;;;;5023827;28;20047;-75
2021/04/14 12:07:35;;;;;;;6.68;2.55;;;9.60;27.90;;;;;;5023504;28;20033;-76
2021/04/14 12:10:00;;;;;;;3.88;2.25;;;9.40;28.20;;;;;;5023864;28;20389;-77
2021/04/14 12:12:26;;;;;;;7.28;2.40;;;9.60;28.00;;;;;;5021667;28;20502;-76
2021/04/14 12:14:52;;;;;;;4.03;1.88;;;9.80;28.00;;;;;;5025452;28;20029;-77
2021/04/14 12:17:18;;;;;;;8.90;2.53;;;10.10;26.80;;;;;;5023170;28;20163;-76
2021/04/14 12:19:44;;;;;;;7.75;2.40;;;9.70;27.00;;;;;;5025168;28;20124;-78
2021/04/14 12:22:11;;;;;;;4.35;1.95;;;9.70;28.50;;;;;;5023314;28;20033;-76
2021/04/14 12:24:37;;;;;;;8.25;2.45;;;9.70;31.50;;;;;;5021111;28;20025;-76
2021/04/14 12:27:03;;;;;;;5.53;2.08;;;9.70;31.50;;;;;;5011845;28;20084;-76
2021/04/14 12:29:29;;;;;;;9.32;2.38;;;9.60;33.90;;;;;;5030223;28;20496;-77
2021/04/14 12:31:54;;;;;;;6.05;2.28;;;9.30;34.90;;;;;;5017880;28;20057;-76
2021/04/14 12:34:20;;;;;;;6.95;2.15;;;9.30;36.80;;;;;;5020194;28;20037;-76
2021/04/14 12:36:46;;;;;;;8.07;2.58;;;9.20;38.10;;;;;;5023329;28;20040;-76
2021/04/14 12:39:12;;;;;;;6.40;2.40;;;9.10;37.80;;;;;;5039547;28;20049;-76
2021/04/14 12:41:39;;;;;;;11.75;2.95;;;9.00;38.00;;;;;;5027862;28;20091;-76
2021/04/14 12:44:05;;;;;;;7.38;2.05;;;8.80;38.70;;;;;;5022706;28;20029;-76
2021/04/14 12:46:32;;;;;;;3.83;2.05;;;8.40;40.20;;;;;;5021918;28;20045;-75
2021/04/14 12:48:57;;;;;;;6.25;2.42;;;9.00;39.70;;;;;;5020114;28;20037;-77
2021/04/14 12:51:54;;;;;;;4.72;1.98;;;9.10;39.40;;;;;;5027139;28;20487;-76
2021/04/14 12:54:20;;;;;;;5.78;2.15;;;8.80;39.90;;;;;;5024912;28;20049;-76
2021/04/14 12:56:56;;;;;;;5.75;2.42;;;9.20;38.30;;;;;;5029032;28;20042;-77
2021/04/14 12:59:29;;;;;;;9.05;2.20;;;9.20;38.10;;;;;;5030235;28;20033;-76
2021/04/14 13:02:03;;;;;;;9.82;3.22;;;9.10;39.00;;;;;;5017592;28;20033;-76
2021/04/14 13:04:47;;;;;;;;;;;9.20;39.90;;;;;;5026344;28;20461;-76
2021/04/14 13:07:21;;;;;;;3.75;2.10;;;8.50;39.00;;;;;;5025622;28;19921;-77
2021/04/14 13:09:49;;;;;;;5.75;2.17;;;8.40;40.50;;;;;;5024356;28;20131;-76
2021/04/14 13:12:21;;;;;;;3.10;1.70;;;8.70;41.90;;;;;;5026457;28;20077;-77